sensor_id;sensor_type;location;lat;lon;timestamp;P1;durP1;ratioP1;P2;durP2;ratioP2
18881;SDS011;9573;50.948;11.600;2022-11-20T05:22:34;39.63;;;11.63;;
18881;SDS011;9573;50.948;11.600;2022-11-20T05:25:01;43.00;;;11.47;;
18881;SDS011;9573;50.948;11.600;2022-11-20T05:27:28;43.70;;;13.77;;
18881;SDS011;9573;50.948;11.600;2022-11-20T05:29:55;40.60;;;10.87;;
18881;SDS011;9573;50.948;11.600;2022-11-20T05:32:22;31.73;;;10.07;;
18881;SDS011;9573;50.948;11.600;2022-11-20T05:34:50;38.60;;;11.40;;
18881;SDS011;9573;50.948;11.600;2022-11-20T05:37:17;43.50;;;12.27;;
18881;SDS011;9573;50.948;11.600;2022-11-20T05:39:45;48.37;;;14.93;;
18881;SDS011;9573;50.948;11.600;2022-11-20T05:42:12;47.50;;;14.67;;
18881;SDS011;9573;50.948;11.600;2022-11-20T05:44:58;45.37;;;14.67;;
18881;SDS011;9573;50.948;11.600;2022-11-20T05:47:27;44.97;;;13.93;;
18881;SDS011;9573;50.948;11.600;2022-11-20T05:49:57;46.83;;;13.77;;
18881;SDS011;9573;50.948;11.600;2022-11-20T05:52:24;42.67;;;13.40;;
18881;SDS011;9573;50.948;11.600;2022-11-20T05:54:55;48.53;;;13.80;;
18881;SDS011;9573;50.948;11.600;2022-11-20T05:57:23;46.90;;;14.13;;
18881;SDS011;9573;50.948;11.600;2022-11-20T05:59:50;49.83;;;14.23;;
18881;SDS011;9573;50.948;11.600;2022-11-20T06:02:18;45.97;;;15.00;;
18881;SDS011;9573;50.948;11.600;2022-11-20T06:04:45;47.73;;;14.90;;
18881;SDS011;9573;50.948;11.600;2022-11-20T06:07:12;49.33;;;13.50;;
18881;SDS011;9573;50.948;11.600;2022-11-20T06:09:39;45.27;;;14.13;;
18881;SDS011;9573;50.948;11.600;2022-11-20T06:12:08;44.10;;;13.37;;
18881;SDS011;9573;50.948;11.600;2022-11-20T06:14:35;45.00;;;13.30;;
18881;SDS011;9573;50.948;11.600;2022-11-20T06:17:02;43.03;;;11.60;;
18881;SDS011;9573;50.948;11.600;2022-11-20T06:19:29;45.97;;;14.30;;
18881;SDS011;9573;50.948;11.600;2022-11-20T06:21:56;47.00;;;13.70;;
18881;SDS011;9573;50.948;11.600;2022-11-20T06:24:23;41.50;;;12.07;;
18881;SDS011;9573;50.948;11.600;2022-11-20T06:26:50;40.93;;;12.40;;
18881;SDS011;9573;50.948;11.600;2022-11-20T06:29:19;41.03;;;12.20;;
18881;SDS011;9573;50.948;11.600;2022-11-20T06:31:46;39.07;;;10.60;;
18881;SDS011;9573;50.948;11.600;2022-11-20T06:34:13;44.07;;;14.00;;
18881;SDS011;9573;50.948;11.600;2022-11-20T06:36:40;43.40;;;12.77;;
18881;SDS011;9573;50.948;11.600;2022-11-20T06:39:07;40.73;;;13.33;;
18881;SDS011;9573;50.948;11.600;2022-11-20T06:41:34;42.10;;;12.83;;
18881;SDS011;9573;50.948;11.600;2022-11-20T06:44:03;43.07;;;13.47;;
18881;SDS011;9573;50.948;11.600;2022-11-20T06:46:31;40.43;;;12.80;;
18881;SDS011;9573;50.948;11.600;2022-11-20T06:48:59;44.03;;;13.60;;
18881;SDS011;9573;50.948;11.600;2022-11-20T06:51:26;44.47;;;14.43;;
18881;SDS011;9573;50.948;11.600;2022-11-20T06:53:53;42.13;;;12.50;;
18881;SDS011;9573;50.948;11.600;2022-11-20T06:56:20;44.97;;;13.43;;
18881;SDS011;9573;50.948;11.600;2022-11-20T06:58:47;49.13;;;12.83;;
18881;SDS011;9573;50.948;11.600;2022-11-20T07:01:14;41.53;;;12.73;;
18881;SDS011;9573;50.948;11.600;2022-11-20T07:03:43;45.03;;;12.87;;
18881;SDS011;9573;50.948;11.600;2022-11-20T07:06:11;44.30;;;13.17;;
18881;SDS011;9573;50.948;11.600;2022-11-20T07:08:38;46.67;;;13.70;;
18881;SDS011;9573;50.948;11.600;2022-11-20T07:11:06;42.77;;;13.37;;
18881;SDS011;9573;50.948;11.600;2022-11-20T07:13:34;46.70;;;14.37;;
18881;SDS011;9573;50.948;11.600;2022-11-20T07:16:01;44.00;;;13.80;;
18881;SDS011;9573;50.948;11.600;2022-11-20T07:18:31;44.60;;;14.10;;
18881;SDS011;9573;50.948;11.600;2022-11-20T07:21:01;43.03;;;13.30;;
18881;SDS011;9573;50.948;11.600;2022-11-20T07:23:29;43.17;;;13.53;;
18881;SDS011;9573;50.948;11.600;2022-11-20T07:25:56;47.53;;;15.00;;
18881;SDS011;9573;50.948;11.600;2022-11-20T07:28:23;45.30;;;14.50;;
18881;SDS011;9573;50.948;11.600;2022-11-20T07:30:50;49.40;;;14.90;;
18881;SDS011;9573;50.948;11.600;2022-11-20T07:33:17;47.13;;;14.20;;
18881;SDS011;9573;50.948;11.600;2022-11-20T07:35:45;43.03;;;13.63;;
18881;SDS011;9573;50.948;11.600;2022-11-20T07:38:13;41.97;;;13.70;;
18881;SDS011;9573;50.948;11.600;2022-11-20T07:40:41;44.43;;;13.67;;
18881;SDS011;9573;50.948;11.600;2022-11-20T07:43:08;38.60;;;12.90;;
18881;SDS011;9573;50.948;11.600;2022-11-20T07:45:35;40.37;;;13.53;;
18881;SDS011;9573;50.948;11.600;2022-11-20T07:48:02;36.33;;;11.20;;
18881;SDS011;9573;50.948;11.600;2022-11-20T07:50:30;41.00;;;13.90;;
18881;SDS011;9573;50.948;11.600;2022-11-20T07:53:00;36.60;;;12.33;;
18881;SDS011;9573;50.948;11.600;2022-11-20T07:55:30;43.53;;;14.00;;
18881;SDS011;9573;50.948;11.600;2022-11-20T07:57:57;39.83;;;12.70;;
18881;SDS011;9573;50.948;11.600;2022-11-20T08:00:25;37.83;;;11.90;;
18881;SDS011;9573;50.948;11.600;2022-11-20T08:02:53;38.03;;;11.87;;
18881;SDS011;9573;50.948;11.600;2022-11-20T08:05:20;42.50;;;14.07;;
18881;SDS011;9573;50.948;11.600;2022-11-20T08:07:47;41.87;;;14.13;;
18881;SDS011;9573;50.948;11.600;2022-11-20T08:10:15;42.07;;;14.77;;
18881;SDS011;9573;50.948;11.600;2022-11-20T08:12:47;40.07;;;13.70;;
18881;SDS011;9573;50.948;11.600;2022-11-20T08:15:33;40.67;;;12.27;;
18881;SDS011;9573;50.948;11.600;2022-11-20T08:18:02;39.33;;;13.53;;
18881;SDS011;9573;50.948;11.600;2022-11-20T08:20:30;39.43;;;13.33;;
18881;SDS011;9573;50.948;11.600;2022-11-20T08:22:57;39.60;;;14.13;;
18881;SDS011;9573;50.948;11.600;2022-11-20T08:25:26;44.47;;;14.67;;
18881;SDS011;9573;50.948;11.600;2022-11-20T08:27:55;41.73;;;13.60;;
18881;SDS011;9573;50.948;11.600;2022-11-20T08:30:24;47.60;;;14.63;;
18881;SDS011;9573;50.948;11.600;2022-11-20T08:32:51;53.97;;;16.63;;
18881;SDS011;9573;50.948;11.600;2022-11-20T08:35:19;45.87;;;15.17;;
18881;SDS011;9573;50.948;11.600;2022-11-20T08:37:47;42.27;;;14.90;;
18881;SDS011;9573;50.948;11.600;2022-11-20T08:40:14;41.73;;;13.80;;
18881;SDS011;9573;50.948;11.600;2022-11-20T08:42:46;39.17;;;13.50;;
18881;SDS011;9573;50.948;11.600;2022-11-20T08:45:15;37.90;;;13.60;;
18881;SDS011;9573;50.948;11.600;2022-11-20T08:47:44;41.20;;;15.00;;
18881;SDS011;9573;50.948;11.600;2022-11-20T08:50:12;34.57;;;10.77;;
18881;SDS011;9573;50.948;11.600;2022-11-20T08:52:41;45.47;;;16.20;;
18881;SDS011;9573;50.948;11.600;2022-11-20T08:55:08;45.77;;;15.63;;
18881;SDS011;9573;50.948;11.600;2022-11-20T08:57:37;42.97;;;14.50;;
18881;SDS011;9573;50.948;11.600;2022-11-20T09:00:05;44.37;;;15.60;;
18881;SDS011;9573;50.948;11.600;2022-11-20T09:02:35;45.43;;;16.27;;
18881;SDS011;9573;50.948;11.600;2022-11-20T09:05:02;44.30;;;14.10;;
18881;SDS011;9573;50.948;11.600;2022-11-20T09:07:31;47.93;;;16.43;;
18881;SDS011;9573;50.948;11.600;2022-11-20T09:09:58;43.70;;;15.20;;
18881;SDS011;9573;50.948;11.600;2022-11-20T09:12:25;42.63;;;15.43;;
18881;SDS011;9573;50.948;11.600;2022-11-20T09:14:52;53.63;;;17.17;;
18881;SDS011;9573;50.948;11.600;2022-11-20T09:17:19;40.00;;;15.33;;
18881;SDS011;9573;50.948;11.600;2022-11-20T09:19:48;40.87;;;15.40;;
18881;SDS011;9573;50.948;11.600;2022-11-20T09:22:15;44.03;;;15.30;;
18881;SDS011;9573;50.948;11.600;2022-11-20T09:24:42;40.13;;;12.97;;
18881;SDS011;9573;50.948;11.600;2022-11-20T09:27:09;40.37;;;14.67;;
18881;SDS011;9573;50.948;11.600;2022-11-20T09:29:36;36.07;;;11.23;;
18881;SDS011;9573;50.948;11.600;2022-11-20T09:32:03;39.00;;;13.50;;
18881;SDS011;9573;50.948;11.600;2022-11-20T09:34:31;39.07;;;13.93;;
18881;SDS011;9573;50.948;11.600;2022-11-20T09:37:00;35.83;;;12.40;;
18881;SDS011;9573;50.948;11.600;2022-11-20T09:39:27;40.27;;;12.80;;
18881;SDS011;9573;50.948;11.600;2022-11-20T09:42:05;40.23;;;13.17;;
18881;SDS011;9573;50.948;11.600;2022-11-20T09:44:53;41.17;;;14.23;;
18881;SDS011;9573;50.948;11.600;2022-11-20T09:47:48;41.63;;;14.13;;
18881;SDS011;9573;50.948;11.600;2022-11-20T09:50:48;35.30;;;12.33;;
18881;SDS011;9573;50.948;11.600;2022-11-20T09:53:23;38.47;;;12.77;;
18881;SDS011;9573;50.948;11.600;2022-11-20T09:55:57;37.90;;;13.70;;
18881;SDS011;9573;50.948;11.600;2022-11-20T09:58:28;38.87;;;13.87;;
18881;SDS011;9573;50.948;11.600;2022-11-20T10:01:03;40.10;;;13.13;;
18881;SDS011;9573;50.948;11.600;2022-11-20T10:03:39;36.93;;;13.37;;
18881;SDS011;9573;50.948;11.600;2022-11-20T10:06:16;39.83;;;13.90;;
18881;SDS011;9573;50.948;11.600;2022-11-20T10:08:54;46.77;;;17.20;;
18881;SDS011;9573;50.948;11.600;2022-11-20T10:11:32;45.37;;;16.17;;
18881;SDS011;9573;50.948;11.600;2022-11-20T10:14:12;41.10;;;15.53;;
18881;SDS011;9573;50.948;11.600;2022-11-20T10:16:52;40.10;;;15.07;;
18881;SDS011;9573;50.948;11.600;2022-11-20T10:19:34;41.27;;;15.37;;
18881;SDS011;9573;50.948;11.600;2022-11-20T10:22:20;40.57;;;14.47;;
18881;SDS011;9573;50.948;11.600;2022-11-20T10:25:03;44.43;;;16.30;;
18881;SDS011;9573;50.948;11.600;2022-11-20T10:27:44;45.67;;;17.77;;
18881;SDS011;9573;50.948;11.600;2022-11-20T10:30:37;46.43;;;17.00;;
18881;SDS011;9573;50.948;11.600;2022-11-20T10:33:10;44.97;;;15.80;;
18881;SDS011;9573;50.948;11.600;2022-11-20T10:35:43;46.10;;;16.80;;
18881;SDS011;9573;50.948;11.600;2022-11-20T10:38:19;37.53;;;12.73;;
18881;SDS011;9573;50.948;11.600;2022-11-20T10:40:54;43.03;;;16.50;;
18881;SDS011;9573;50.948;11.600;2022-11-20T10:43:46;40.20;;;14.97;;
18881;SDS011;9573;50.948;11.600;2022-11-20T10:46:17;44.63;;;15.73;;
18881;SDS011;9573;50.948;11.600;2022-11-20T10:48:47;43.50;;;15.23;;
18881;SDS011;9573;50.948;11.600;2022-11-20T10:51:18;40.07;;;13.40;;
18881;SDS011;9573;50.948;11.600;2022-11-20T10:54:04;39.93;;;14.00;;
18881;SDS011;9573;50.948;11.600;2022-11-20T10:56:45;39.37;;;13.80;;
18881;SDS011;9573;50.948;11.600;2022-11-20T10:59:30;42.33;;;14.80;;
18881;SDS011;9573;50.948;11.600;2022-11-20T11:02:17;42.47;;;14.47;;
18881;SDS011;9573;50.948;11.600;2022-11-20T11:04:46;42.20;;;15.00;;
18881;SDS011;9573;50.948;11.600;2022-11-20T11:07:16;42.43;;;15.60;;
18881;SDS011;9573;50.948;11.600;2022-11-20T11:09:48;37.67;;;14.07;;
18881;SDS011;9573;50.948;11.600;2022-11-20T11:12:20;42.70;;;14.60;;
18881;SDS011;9573;50.948;11.600;2022-11-20T11:14:49;39.03;;;12.97;;
18881;SDS011;9573;50.948;11.600;2022-11-20T11:17:22;40.83;;;14.53;;
18881;SDS011;9573;50.948;11.600;2022-11-20T11:19:56;43.13;;;14.77;;
18881;SDS011;9573;50.948;11.600;2022-11-20T11:22:25;39.67;;;14.47;;
18881;SDS011;9573;50.948;11.600;2022-11-20T11:24:56;37.07;;;13.90;;
18881;SDS011;9573;50.948;11.600;2022-11-20T11:27:24;38.43;;;13.03;;
18881;SDS011;9573;50.948;11.600;2022-11-20T11:30:01;38.30;;;13.50;;
18881;SDS011;9573;50.948;11.600;2022-11-20T11:32:40;37.60;;;12.80;;
18881;SDS011;9573;50.948;11.600;2022-11-20T11:35:18;41.37;;;13.77;;
18881;SDS011;9573;50.948;11.600;2022-11-20T11:37:49;37.03;;;12.43;;
18881;SDS011;9573;50.948;11.600;2022-11-20T11:40:19;38.87;;;13.67;;
18881;SDS011;9573;50.948;11.600;2022-11-20T11:42:56;37.80;;;13.07;;
18881;SDS011;9573;50.948;11.600;2022-11-20T11:45:26;39.83;;;13.93;;
18881;SDS011;9573;50.948;11.600;2022-11-20T11:47:53;38.70;;;14.87;;
18881;SDS011;9573;50.948;11.600;2022-11-20T11:50:23;39.27;;;14.60;;
18881;SDS011;9573;50.948;11.600;2022-11-20T11:52:58;41.17;;;15.17;;
18881;SDS011;9573;50.948;11.600;2022-11-20T11:55:35;40.87;;;13.87;;
18881;SDS011;9573;50.948;11.600;2022-11-20T11:58:09;44.03;;;16.07;;
18881;SDS011;9573;50.948;11.600;2022-11-20T12:00:49;49.23;;;19.43;;
18881;SDS011;9573;50.948;11.600;2022-11-20T12:03:24;44.63;;;18.53;;
18881;SDS011;9573;50.948;11.600;2022-11-20T12:05:59;42.33;;;16.40;;
18881;SDS011;9573;50.948;11.600;2022-11-20T12:08:32;42.50;;;16.37;;
18881;SDS011;9573;50.948;11.600;2022-11-20T12:11:11;41.97;;;16.57;;
18881;SDS011;9573;50.948;11.600;2022-11-20T12:13:46;41.27;;;15.80;;
18881;SDS011;9573;50.948;11.600;2022-11-20T12:16:20;41.17;;;15.03;;
18881;SDS011;9573;50.948;11.600;2022-11-20T12:18:48;37.73;;;13.93;;
18881;SDS011;9573;50.948;11.600;2022-11-20T12:21:21;38.43;;;15.07;;
18881;SDS011;9573;50.948;11.600;2022-11-20T12:24:06;41.37;;;14.43;;
18881;SDS011;9573;50.948;11.600;2022-11-20T12:27:05;40.63;;;14.87;;
18881;SDS011;9573;50.948;11.600;2022-11-20T12:30:07;42.23;;;15.77;;
18881;SDS011;9573;50.948;11.600;2022-11-20T12:32:46;40.67;;;15.73;;
18881;SDS011;9573;50.948;11.600;2022-11-20T12:35:44;41.07;;;15.67;;
18881;SDS011;9573;50.948;11.600;2022-11-20T12:38:29;43.63;;;16.43;;
18881;SDS011;9573;50.948;11.600;2022-11-20T12:41:44;45.57;;;16.53;;
18881;SDS011;9573;50.948;11.600;2022-11-20T12:45:32;47.33;;;17.10;;
18881;SDS011;9573;50.948;11.600;2022-11-20T12:51:47;46.40;;;16.93;;
18881;SDS011;9573;50.948;11.600;2022-11-20T12:54:54;41.83;;;16.07;;
18881;SDS011;9573;50.948;11.600;2022-11-20T12:57:57;42.87;;;16.53;;
18881;SDS011;9573;50.948;11.600;2022-11-20T13:00:32;48.73;;;17.93;;
18881;SDS011;9573;50.948;11.600;2022-11-20T13:06:10;43.33;;;16.30;;
18881;SDS011;9573;50.948;11.600;2022-11-20T13:08:43;41.57;;;16.87;;
18881;SDS011;9573;50.948;11.600;2022-11-20T13:11:18;41.60;;;16.93;;
18881;SDS011;9573;50.948;11.600;2022-11-20T13:13:57;36.67;;;13.47;;
18881;SDS011;9573;50.948;11.600;2022-11-20T13:16:47;40.23;;;15.00;;
18881;SDS011;9573;50.948;11.600;2022-11-20T13:19:20;39.93;;;14.73;;
18881;SDS011;9573;50.948;11.600;2022-11-20T13:21:48;40.53;;;14.90;;
18881;SDS011;9573;50.948;11.600;2022-11-20T13:24:20;38.97;;;13.47;;
18881;SDS011;9573;50.948;11.600;2022-11-20T13:27:03;39.17;;;14.13;;
18881;SDS011;9573;50.948;11.600;2022-11-20T13:29:44;41.43;;;15.27;;
18881;SDS011;9573;50.948;11.600;2022-11-20T13:32:15;41.70;;;15.77;;
18881;SDS011;9573;50.948;11.600;2022-11-20T13:34:51;44.80;;;15.20;;
18881;SDS011;9573;50.948;11.600;2022-11-20T13:37:24;40.43;;;14.73;;
18881;SDS011;9573;50.948;11.600;2022-11-20T13:40:12;37.87;;;14.10;;
18881;SDS011;9573;50.948;11.600;2022-11-20T13:42:53;44.03;;;18.67;;
18881;SDS011;9573;50.948;11.600;2022-11-20T13:45:28;41.83;;;15.90;;
18881;SDS011;9573;50.948;11.600;2022-11-20T13:47:59;46.47;;;17.97;;
18881;SDS011;9573;50.948;11.600;2022-11-20T13:50:39;44.67;;;17.57;;
18881;SDS011;9573;50.948;11.600;2022-11-20T13:53:18;44.87;;;15.80;;
18881;SDS011;9573;50.948;11.600;2022-11-20T13:56:04;42.33;;;16.43;;
18881;SDS011;9573;50.948;11.600;2022-11-20T13:58:40;43.70;;;17.90;;
18881;SDS011;9573;50.948;11.600;2022-11-20T14:01:19;41.43;;;15.40;;
18881;SDS011;9573;50.948;11.600;2022-11-20T14:03:51;41.23;;;15.53;;
18881;SDS011;9573;50.948;11.600;2022-11-20T14:06:21;44.93;;;15.80;;
18881;SDS011;9573;50.948;11.600;2022-11-20T14:08:54;43.40;;;15.23;;
18881;SDS011;9573;50.948;11.600;2022-11-20T14:11:22;42.87;;;15.60;;
18881;SDS011;9573;50.948;11.600;2022-11-20T14:13:55;42.30;;;17.83;;
18881;SDS011;9573;50.948;11.600;2022-11-20T14:16:26;43.67;;;15.83;;
18881;SDS011;9573;50.948;11.600;2022-11-20T14:18:57;44.80;;;15.57;;
18881;SDS011;9573;50.948;11.600;2022-11-20T14:21:49;45.70;;;16.93;;
18881;SDS011;9573;50.948;11.600;2022-11-20T14:24:19;40.40;;;14.43;;
18881;SDS011;9573;50.948;11.600;2022-11-20T14:26:48;42.87;;;16.63;;
18881;SDS011;9573;50.948;11.600;2022-11-20T14:29:17;40.07;;;15.00;;
18881;SDS011;9573;50.948;11.600;2022-11-20T14:31:47;42.73;;;16.07;;
18881;SDS011;9573;50.948;11.600;2022-11-20T14:34:20;40.07;;;15.23;;
18881;SDS011;9573;50.948;11.600;2022-11-20T14:36:50;42.43;;;15.73;;
18881;SDS011;9573;50.948;11.600;2022-11-20T14:39:25;45.80;;;18.20;;
18881;SDS011;9573;50.948;11.600;2022-11-20T14:41:57;46.50;;;17.73;;
18881;SDS011;9573;50.948;11.600;2022-11-20T14:44:26;45.97;;;16.53;;
18881;SDS011;9573;50.948;11.600;2022-11-20T14:46:57;46.83;;;18.30;;
18881;SDS011;9573;50.948;11.600;2022-11-20T14:49:28;50.33;;;18.77;;
18881;SDS011;9573;50.948;11.600;2022-11-20T14:51:58;43.77;;;16.83;;
18881;SDS011;9573;50.948;11.600;2022-11-20T14:54:26;50.20;;;18.83;;
18881;SDS011;9573;50.948;11.600;2022-11-20T14:56:56;50.23;;;18.00;;
18881;SDS011;9573;50.948;11.600;2022-11-20T14:59:26;51.20;;;19.13;;
18881;SDS011;9573;50.948;11.600;2022-11-20T15:01:55;51.60;;;20.20;;
18881;SDS011;9573;50.948;11.600;2022-11-20T15:04:25;48.77;;;19.10;;
18881;SDS011;9573;50.948;11.600;2022-11-20T15:06:54;47.60;;;19.30;;
18881;SDS011;9573;50.948;11.600;2022-11-20T15:09:25;46.90;;;18.83;;
18881;SDS011;9573;50.948;11.600;2022-11-20T15:11:53;49.43;;;19.03;;
18881;SDS011;9573;50.948;11.600;2022-11-20T15:14:22;48.17;;;19.80;;
18881;SDS011;9573;50.948;11.600;2022-11-20T15:16:51;55.43;;;19.93;;
18881;SDS011;9573;50.948;11.600;2022-11-20T15:19:20;50.53;;;19.73;;
18881;SDS011;9573;50.948;11.600;2022-11-20T15:21:50;50.23;;;18.33;;
18881;SDS011;9573;50.948;11.600;2022-11-20T15:24:17;45.73;;;15.87;;
18881;SDS011;9573;50.948;11.600;2022-11-20T15:26:45;48.13;;;17.20;;
18881;SDS011;9573;50.948;11.600;2022-11-20T15:29:13;42.00;;;15.60;;
18881;SDS011;9573;50.948;11.600;2022-11-20T15:31:43;48.37;;;17.03;;
18881;SDS011;9573;50.948;11.600;2022-11-20T15:34:12;50.00;;;18.67;;
18881;SDS011;9573;50.948;11.600;2022-11-20T15:36:41;51.90;;;18.70;;
18881;SDS011;9573;50.948;11.600;2022-11-20T15:39:10;47.90;;;17.07;;
18881;SDS011;9573;50.948;11.600;2022-11-20T15:41:38;51.20;;;18.00;;
18881;SDS011;9573;50.948;11.600;2022-11-20T15:44:05;51.37;;;17.60;;
18881;SDS011;9573;50.948;11.600;2022-11-20T15:46:33;50.90;;;17.60;;
18881;SDS011;9573;50.948;11.600;2022-11-20T15:49:05;49.47;;;17.40;;
18881;SDS011;9573;50.948;11.600;2022-11-20T15:51:37;54.03;;;18.37;;
18881;SDS011;9573;50.948;11.600;2022-11-20T15:54:08;49.90;;;17.33;;
18881;SDS011;9573;50.948;11.600;2022-11-20T15:56:39;52.93;;;17.40;;
18881;SDS011;9573;50.948;11.600;2022-11-20T15:59:06;52.07;;;19.40;;
18881;SDS011;9573;50.948;11.600;2022-11-20T16:01:33;52.07;;;18.83;;
18881;SDS011;9573;50.948;11.600;2022-11-20T16:04:00;53.10;;;18.63;;
18881;SDS011;9573;50.948;11.600;2022-11-20T16:06:28;62.80;;;20.23;;
18881;SDS011;9573;50.948;11.600;2022-11-20T16:08:55;53.10;;;19.90;;
18881;SDS011;9573;50.948;11.600;2022-11-20T16:11:23;56.47;;;19.47;;
18881;SDS011;9573;50.948;11.600;2022-11-20T16:13:50;51.90;;;18.67;;
18881;SDS011;9573;50.948;11.600;2022-11-20T16:16:36;51.70;;;18.63;;
18881;SDS011;9573;50.948;11.600;2022-11-20T16:19:05;53.77;;;19.73;;
18881;SDS011;9573;50.948;11.600;2022-11-20T16:21:36;53.47;;;20.40;;
18881;SDS011;9573;50.948;11.600;2022-11-20T16:24:05;61.37;;;21.87;;
18881;SDS011;9573;50.948;11.600;2022-11-20T16:26:35;53.73;;;20.47;;
18881;SDS011;9573;50.948;11.600;2022-11-20T16:29:03;58.37;;;22.07;;
18881;SDS011;9573;50.948;11.600;2022-11-20T16:31:32;64.83;;;23.20;;
18881;SDS011;9573;50.948;11.600;2022-11-20T16:34:00;62.93;;;23.40;;
18881;SDS011;9573;50.948;11.600;2022-11-20T16:36:29;59.03;;;22.97;;
18881;SDS011;9573;50.948;11.600;2022-11-20T16:38:57;52.83;;;21.77;;
18881;SDS011;9573;50.948;11.600;2022-11-20T16:41:29;65.00;;;24.50;;
18881;SDS011;9573;50.948;11.600;2022-11-20T16:44:00;60.10;;;22.87;;
18881;SDS011;9573;50.948;11.600;2022-11-20T16:46:29;66.47;;;24.03;;
18881;SDS011;9573;50.948;11.600;2022-11-20T16:48:58;60.83;;;23.23;;
18881;SDS011;9573;50.948;11.600;2022-11-20T16:51:27;57.83;;;22.30;;
18881;SDS011;9573;50.948;11.600;2022-11-20T16:53:56;66.70;;;24.73;;
18881;SDS011;9573;50.948;11.600;2022-11-20T16:56:27;57.00;;;21.77;;
18881;SDS011;9573;50.948;11.600;2022-11-20T16:58:55;54.60;;;20.33;;
18881;SDS011;9573;50.948;11.600;2022-11-20T17:01:26;53.37;;;19.30;;
18881;SDS011;9573;50.948;11.600;2022-11-20T17:03:55;56.50;;;20.27;;
18881;SDS011;9573;50.948;11.600;2022-11-20T17:06:25;59.13;;;21.87;;
18881;SDS011;9573;50.948;11.600;2022-11-20T17:08:54;58.43;;;21.83;;
18881;SDS011;9573;50.948;11.600;2022-11-20T17:11:23;63.03;;;24.13;;
18881;SDS011;9573;50.948;11.600;2022-11-20T17:13:51;63.77;;;23.67;;
18881;SDS011;9573;50.948;11.600;2022-11-20T17:16:21;59.20;;;22.23;;
18881;SDS011;9573;50.948;11.600;2022-11-20T17:18:52;60.47;;;22.97;;
18881;SDS011;9573;50.948;11.600;2022-11-20T17:21:20;59.47;;;20.77;;
18881;SDS011;9573;50.948;11.600;2022-11-20T17:23:47;59.07;;;22.63;;
18881;SDS011;9573;50.948;11.600;2022-11-20T17:26:15;56.87;;;21.90;;
18881;SDS011;9573;50.948;11.600;2022-11-20T17:28:44;58.83;;;21.70;;
18881;SDS011;9573;50.948;11.600;2022-11-20T17:31:13;58.00;;;21.20;;
18881;SDS011;9573;50.948;11.600;2022-11-20T17:33:43;56.90;;;20.63;;
18881;SDS011;9573;50.948;11.600;2022-11-20T17:36:14;52.10;;;20.43;;
18881;SDS011;9573;50.948;11.600;2022-11-20T17:38:42;56.63;;;20.57;;
18881;SDS011;9573;50.948;11.600;2022-11-20T17:41:10;53.63;;;20.37;;
18881;SDS011;9573;50.948;11.600;2022-11-20T17:43:39;55.43;;;20.83;;
18881;SDS011;9573;50.948;11.600;2022-11-20T17:46:08;55.60;;;20.57;;
18881;SDS011;9573;50.948;11.600;2022-11-20T17:48:37;55.90;;;21.27;;
18881;SDS011;9573;50.948;11.600;2022-11-20T17:51:06;53.63;;;21.30;;
18881;SDS011;9573;50.948;11.600;2022-11-20T17:53:38;56.57;;;21.57;;
18881;SDS011;9573;50.948;11.600;2022-11-20T17:56:09;57.37;;;21.20;;
18881;SDS011;9573;50.948;11.600;2022-11-20T17:58:56;54.83;;;21.67;;
18881;SDS011;9573;50.948;11.600;2022-11-20T18:01:24;55.73;;;21.03;;
18881;SDS011;9573;50.948;11.600;2022-11-20T18:03:51;50.00;;;20.43;;
18881;SDS011;9573;50.948;11.600;2022-11-20T18:06:19;53.83;;;20.20;;
18881;SDS011;9573;50.948;11.600;2022-11-20T18:08:49;53.33;;;20.90;;
18881;SDS011;9573;50.948;11.600;2022-11-20T18:11:17;52.63;;;20.63;;
18881;SDS011;9573;50.948;11.600;2022-11-20T18:13:49;51.90;;;20.20;;
18881;SDS011;9573;50.948;11.600;2022-11-20T18:16:44;55.77;;;22.03;;
18881;SDS011;9573;50.948;11.600;2022-11-20T18:19:18;52.93;;;19.97;;
18881;SDS011;9573;50.948;11.600;2022-11-20T18:21:49;51.97;;;19.67;;
18881;SDS011;9573;50.948;11.600;2022-11-20T18:24:18;52.47;;;19.73;;
18881;SDS011;9573;50.948;11.600;2022-11-20T18:26:45;53.97;;;20.27;;
18881;SDS011;9573;50.948;11.600;2022-11-20T18:29:13;50.13;;;20.23;;
18881;SDS011;9573;50.948;11.600;2022-11-20T18:31:41;50.93;;;19.83;;
18881;SDS011;9573;50.948;11.600;2022-11-20T18:34:08;50.33;;;19.97;;
18881;SDS011;9573;50.948;11.600;2022-11-20T18:36:38;50.67;;;19.90;;
18881;SDS011;9573;50.948;11.600;2022-11-20T18:39:06;52.97;;;20.77;;
18881;SDS011;9573;50.948;11.600;2022-11-20T18:41:38;54.27;;;20.23;;
18881;SDS011;9573;50.948;11.600;2022-11-20T18:44:24;53.13;;;21.23;;
18881;SDS011;9573;50.948;11.600;2022-11-20T18:47:11;51.63;;;20.07;;
18881;SDS011;9573;50.948;11.600;2022-11-20T18:49:42;53.77;;;22.00;;
18881;SDS011;9573;50.948;11.600;2022-11-20T18:52:14;53.33;;;21.10;;
18881;SDS011;9573;50.948;11.600;2022-11-20T18:54:41;53.30;;;20.67;;
18881;SDS011;9573;50.948;11.600;2022-11-20T18:57:10;53.37;;;19.57;;
18881;SDS011;9573;50.948;11.600;2022-11-20T18:59:39;47.37;;;19.23;;
18881;SDS011;9573;50.948;11.600;2022-11-20T19:02:08;50.83;;;20.13;;
18881;SDS011;9573;50.948;11.600;2022-11-20T19:04:36;49.53;;;19.57;;
18881;SDS011;9573;50.948;11.600;2022-11-20T19:07:03;54.20;;;21.10;;
18881;SDS011;9573;50.948;11.600;2022-11-20T19:09:31;48.80;;;19.47;;
18881;SDS011;9573;50.948;11.600;2022-11-20T19:11:58;52.17;;;20.27;;
18881;SDS011;9573;50.948;11.600;2022-11-20T19:14:26;51.50;;;20.63;;
18881;SDS011;9573;50.948;11.600;2022-11-20T19:16:53;50.60;;;19.80;;
18881;SDS011;9573;50.948;11.600;2022-11-20T19:19:20;53.57;;;20.73;;
18881;SDS011;9573;50.948;11.600;2022-11-20T19:21:48;61.20;;;21.83;;
18881;SDS011;9573;50.948;11.600;2022-11-20T19:24:15;54.43;;;21.40;;
18881;SDS011;9573;50.948;11.600;2022-11-20T19:26:42;54.43;;;20.80;;
18881;SDS011;9573;50.948;11.600;2022-11-20T19:29:09;54.27;;;21.17;;
18881;SDS011;9573;50.948;11.600;2022-11-20T19:31:41;51.53;;;20.40;;
18881;SDS011;9573;50.948;11.600;2022-11-20T19:34:08;52.53;;;21.70;;
18881;SDS011;9573;50.948;11.600;2022-11-20T19:36:37;57.40;;;22.70;;
18881;SDS011;9573;50.948;11.600;2022-11-20T19:39:05;52.43;;;21.37;;
18881;SDS011;9573;50.948;11.600;2022-11-20T19:41:35;48.73;;;19.27;;
18881;SDS011;9573;50.948;11.600;2022-11-20T19:44:04;46.63;;;19.03;;
18881;SDS011;9573;50.948;11.600;2022-11-20T19:46:34;50.43;;;19.33;;
18881;SDS011;9573;50.948;11.600;2022-11-20T19:49:05;48.27;;;19.73;;
18881;SDS011;9573;50.948;11.600;2022-11-20T19:51:34;51.60;;;20.07;;
18881;SDS011;9573;50.948;11.600;2022-11-20T19:54:06;51.50;;;20.50;;
18881;SDS011;9573;50.948;11.600;2022-11-20T19:56:33;54.47;;;21.03;;
18881;SDS011;9573;50.948;11.600;2022-11-20T19:59:00;51.23;;;20.10;;
18881;SDS011;9573;50.948;11.600;2022-11-20T20:01:30;56.13;;;21.07;;
18881;SDS011;9573;50.948;11.600;2022-11-20T20:03:57;54.27;;;21.53;;
18881;SDS011;9573;50.948;11.600;2022-11-20T20:06:29;51.60;;;21.40;;
18881;SDS011;9573;50.948;11.600;2022-11-20T20:08:58;49.73;;;19.60;;
18881;SDS011;9573;50.948;11.600;2022-11-20T20:11:28;51.80;;;21.63;;
18881;SDS011;9573;50.948;11.600;2022-11-20T20:13:58;48.67;;;20.10;;
18881;SDS011;9573;50.948;11.600;2022-11-20T20:16:26;47.57;;;20.10;;